createdAt,value
2023-05-24T00:00:29.103Z,14.80
2023-05-24T00:02:57.885Z,14.70
2023-05-24T00:05:25.552Z,14.60
2023-05-24T00:07:53.092Z,14.50
2023-05-24T00:10:20.938Z,14.50
2023-05-24T00:12:48.507Z,14.50
2023-05-24T00:15:16.066Z,14.40
2023-05-24T00:17:43.811Z,14.40
2023-05-24T00:20:12.793Z,14.30
2023-05-24T00:22:41.492Z,14.20
2023-05-24T00:25:09.758Z,14.20
2023-05-24T00:27:37.802Z,14.20
2023-05-24T00:30:07.003Z,14.20
2023-05-24T00:32:34.677Z,14.10
2023-05-24T00:35:02.312Z,13.90
2023-05-24T00:37:29.978Z,13.90
2023-05-24T00:39:57.555Z,13.80
2023-05-24T00:42:25.205Z,13.70
2023-05-24T00:44:52.760Z,13.50
2023-05-24T00:47:20.385Z,13.40
2023-05-24T00:49:47.942Z,13.30
2023-05-24T00:52:16.771Z,13.20
2023-05-24T00:54:44.379Z,13.10
2023-05-24T00:57:14.302Z,13.00
2023-05-24T00:59:42.384Z,13.00
2023-05-24T01:02:09.998Z,12.90
2023-05-24T01:04:38.403Z,12.90
2023-05-24T01:07:23.668Z,12.80
2023-05-24T01:10:08.541Z,12.80
2023-05-24T01:12:54.173Z,12.80
2023-05-24T01:15:56.980Z,12.70
2023-05-24T01:18:26.431Z,12.70
2023-05-24T01:21:09.014Z,12.60
2023-05-24T01:24:08.833Z,12.60
2023-05-24T01:26:54.090Z,12.60
2023-05-24T01:29:22.565Z,12.50
2023-05-24T01:31:50.906Z,12.50
2023-05-24T01:34:18.559Z,12.40
2023-05-24T01:36:46.097Z,12.40
2023-05-24T01:39:13.951Z,12.30
2023-05-24T01:42:25.461Z,12.30
2023-05-24T01:45:40.788Z,12.30
2023-05-24T01:48:25.072Z,12.20
2023-05-24T01:51:01.411Z,12.20
2023-05-24T01:53:36.391Z,12.20
2023-05-24T01:56:06.857Z,12.10
2023-05-24T01:58:36.854Z,12.10
2023-05-24T02:01:05.247Z,12.10
2023-05-24T02:03:33.013Z,11.90
2023-05-24T02:06:00.723Z,11.80
2023-05-24T02:08:28.341Z,11.60
2023-05-24T02:10:55.926Z,11.50
2023-05-24T02:13:23.691Z,11.40
2023-05-24T02:15:53.867Z,11.30
2023-05-24T02:18:22.814Z,11.30
2023-05-24T02:20:50.438Z,11.30
2023-05-24T02:23:18.071Z,11.20
2023-05-24T02:25:45.946Z,11.20
2023-05-24T02:28:13.593Z,11.10
2023-05-24T02:30:44.810Z,11.10
2023-05-24T02:33:12.843Z,10.90
2023-05-24T02:35:41.764Z,10.80
2023-05-24T02:38:09.934Z,10.60
2023-05-24T02:40:37.768Z,10.50
2023-05-24T02:43:05.287Z,10.40
2023-05-24T02:45:33.013Z,10.30
2023-05-24T02:48:00.801Z,10.20
2023-05-24T02:50:28.466Z,10.10
2023-05-24T02:52:56.043Z,10.00
2023-05-24T02:55:23.748Z,10.00
2023-05-24T02:57:51.671Z,9.90
2023-05-24T03:00:20.261Z,9.90
2023-05-24T03:02:48.190Z,9.80
2023-05-24T03:05:15.945Z,9.80
2023-05-24T03:07:43.782Z,9.80
2023-05-24T03:10:12.611Z,9.90
2023-05-24T03:12:41.886Z,9.90
2023-05-24T03:15:10.424Z,9.90
2023-05-24T03:17:37.957Z,9.90
2023-05-24T03:20:06.710Z,9.90
2023-05-24T03:22:34.360Z,9.90
2023-05-24T03:25:01.990Z,9.90
2023-05-24T03:27:29.620Z,9.80
2023-05-24T03:29:57.229Z,9.90
2023-05-24T03:32:24.817Z,9.90
2023-05-24T03:34:53.073Z,9.80
2023-05-24T03:37:20.579Z,9.80
2023-05-24T03:39:48.142Z,9.80
2023-05-24T03:42:15.678Z,9.80
2023-05-24T03:44:44.078Z,9.80
2023-05-24T03:47:11.629Z,9.80
2023-05-24T03:49:39.270Z,9.80
2023-05-24T03:52:06.915Z,9.80
2023-05-24T03:54:34.476Z,9.80
2023-05-24T03:57:02.825Z,9.80
2023-05-24T03:59:31.143Z,9.90
2023-05-24T04:01:58.857Z,9.90
2023-05-24T04:04:26.456Z,9.80
2023-05-24T04:06:54.209Z,9.80
2023-05-24T04:09:23.833Z,9.80
2023-05-24T04:11:51.530Z,9.80
2023-05-24T04:14:19.175Z,9.90
2023-05-24T04:16:47.060Z,9.90
2023-05-24T04:19:14.666Z,9.90
2023-05-24T04:21:42.244Z,9.90
2023-05-24T04:24:09.852Z,9.90
2023-05-24T04:26:38.287Z,9.90
2023-05-24T04:29:07.873Z,9.90
2023-05-24T04:31:35.619Z,9.90
2023-05-24T04:34:03.458Z,9.90
2023-05-24T04:36:31.697Z,10.00
2023-05-24T04:39:03.169Z,10.00
2023-05-24T04:41:36.148Z,9.90
2023-05-24T04:44:03.885Z,9.90
2023-05-24T04:46:31.747Z,9.90
2023-05-24T04:48:59.354Z,9.90
2023-05-24T04:51:27.012Z,9.90
2023-05-24T04:53:54.773Z,9.90
2023-05-24T04:56:23.343Z,10.00
2023-05-24T04:58:50.881Z,10.00
2023-05-24T05:01:19.295Z,10.00
2023-05-24T05:03:46.944Z,10.10
2023-05-24T05:06:15.467Z,10.10
2023-05-24T05:08:43.811Z,10.20
2023-05-24T05:11:11.582Z,10.30
2023-05-24T05:13:39.171Z,10.30
2023-05-24T05:16:07.085Z,10.30
2023-05-24T05:18:34.856Z,10.40
2023-05-24T05:21:03.365Z,10.50
2023-05-24T05:23:31.613Z,10.40
2023-05-24T05:25:59.246Z,10.40
2023-05-24T05:28:26.767Z,10.40
2023-05-24T05:30:54.369Z,10.40
2023-05-24T05:33:21.956Z,10.40
2023-05-24T05:35:49.496Z,10.40
2023-05-24T05:38:17.199Z,10.40
2023-05-24T05:40:44.790Z,10.40
2023-05-24T05:43:13.057Z,10.40
2023-05-24T05:45:40.927Z,10.50
2023-05-24T05:48:08.566Z,10.50
2023-05-24T05:50:36.203Z,10.60
2023-05-24T05:53:18.956Z,10.50
2023-05-24T05:55:53.633Z,10.50
2023-05-24T05:58:47.573Z,10.60
2023-05-24T06:01:33.441Z,10.60
2023-05-24T06:04:22.682Z,10.50
2023-05-24T06:06:58.135Z,10.40
2023-05-24T06:09:34.520Z,10.30
2023-05-24T06:12:03.499Z,10.30
2023-05-24T06:14:53.594Z,10.20
2023-05-24T06:17:33.190Z,10.30
2023-05-24T06:20:04.960Z,10.30
2023-05-24T06:22:45.320Z,10.40
2023-05-24T06:25:31.225Z,10.50
2023-05-24T06:28:19.710Z,10.50
2023-05-24T06:30:55.655Z,10.50
2023-05-24T06:33:46.720Z,10.70
2023-05-24T06:36:38.319Z,10.80
2023-05-24T06:39:16.977Z,10.80
2023-05-24T06:42:08.429Z,10.90
2023-05-24T06:44:47.848Z,11.00
2023-05-24T06:47:36.163Z,11.00
2023-05-24T06:50:24.006Z,10.90
2023-05-24T06:53:11.203Z,10.80
2023-05-24T06:55:59.774Z,11.00
2023-05-24T06:58:46.170Z,11.10
2023-05-24T07:01:22.929Z,11.30
2023-05-24T07:03:56.385Z,11.30
2023-05-24T07:06:42.359Z,11.40
2023-05-24T07:09:21.220Z,11.60
2023-05-24T07:11:51.368Z,11.60
2023-05-24T07:14:29.270Z,11.70
2023-05-24T07:17:02.635Z,11.80
2023-05-24T07:19:34.697Z,11.50
2023-05-24T07:22:02.492Z,11.20
2023-05-24T07:24:30.174Z,11.20
2023-05-24T07:26:57.957Z,11.10
2023-05-24T07:29:26.291Z,11.10
2023-05-24T07:31:56.702Z,11.10
2023-05-24T07:34:27.728Z,11.10
2023-05-24T07:36:55.294Z,11.20
2023-05-24T07:39:23.494Z,11.20
2023-05-24T07:41:51.398Z,11.30
2023-05-24T07:44:20.183Z,11.30
2023-05-24T07:46:47.924Z,11.40
2023-05-24T07:49:15.545Z,11.50
2023-05-24T07:51:43.321Z,11.60
2023-05-24T07:54:10.877Z,11.70
2023-05-24T07:56:38.585Z,11.80
2023-05-24T07:59:06.989Z,11.90
2023-05-24T08:01:38.242Z,11.90
2023-05-24T08:04:06.214Z,11.90
2023-05-24T08:06:35.244Z,12.00
2023-05-24T08:09:04.689Z,12.30
2023-05-24T08:11:32.530Z,12.80
2023-05-24T08:14:00.209Z,13.00
2023-05-24T08:16:28.109Z,13.20
2023-05-24T08:18:55.872Z,13.20
2023-05-24T08:21:23.811Z,13.00
2023-05-24T08:23:51.827Z,13.10
2023-05-24T08:26:21.146Z,13.00
2023-05-24T08:28:48.767Z,13.00
2023-05-24T08:31:16.611Z,13.00
2023-05-24T08:33:44.982Z,13.20
2023-05-24T08:36:12.605Z,13.10
2023-05-24T08:38:40.149Z,13.30
2023-05-24T08:41:08.699Z,13.40
2023-05-24T08:43:36.941Z,13.50
2023-05-24T08:46:06.032Z,13.80
2023-05-24T08:48:36.707Z,14.00
2023-05-24T08:51:04.982Z,13.80
2023-05-24T08:53:33.974Z,13.90
2023-05-24T08:56:02.086Z,14.40
2023-05-24T08:58:31.675Z,14.60
2023-05-24T09:01:00.271Z,14.80
2023-05-24T09:03:28.295Z,15.10
2023-05-24T09:05:56.520Z,14.80
2023-05-24T09:08:24.927Z,14.50
2023-05-24T09:10:54.645Z,14.30
2023-05-24T09:13:25.370Z,14.30
2023-05-24T09:15:53.451Z,14.80
2023-05-24T09:18:21.413Z,14.70
2023-05-24T09:20:49.260Z,14.80
2023-05-24T09:23:17.839Z,14.90
2023-05-24T09:25:47.155Z,14.80
2023-05-24T09:28:17.890Z,14.80
2023-05-24T09:31:00.506Z,14.70
2023-05-24T09:33:35.576Z,14.60
2023-05-24T09:36:05.620Z,15.10
2023-05-24T09:38:33.749Z,15.60
2023-05-24T09:41:08.962Z,15.30
2023-05-24T09:43:49.939Z,15.00
2023-05-24T09:46:22.576Z,15.20
2023-05-24T09:49:01.125Z,15.30
2023-05-24T09:51:29.000Z,15.60
2023-05-24T09:54:02.765Z,15.00
2023-05-24T09:56:31.136Z,14.60
2023-05-24T09:58:59.000Z,14.50
2023-05-24T10:01:28.423Z,14.40
2023-05-24T10:03:59.366Z,14.20
2023-05-24T10:06:28.655Z,14.50
2023-05-24T10:08:57.274Z,14.70
2023-05-24T10:11:24.939Z,15.00
2023-05-24T10:13:53.094Z,15.10
2023-05-24T10:16:20.774Z,15.20
2023-05-24T10:18:50.701Z,15.20
2023-05-24T10:21:24.018Z,15.40
2023-05-24T10:23:58.268Z,15.20
2023-05-24T10:26:30.115Z,15.20
2023-05-24T10:29:07.315Z,15.40
2023-05-24T10:31:39.847Z,15.60
2023-05-24T10:34:09.223Z,15.50
2023-05-24T10:36:40.168Z,15.70
2023-05-24T10:39:12.152Z,15.90
2023-05-24T10:41:44.288Z,16.10
2023-05-24T10:44:13.713Z,16.00
2023-05-24T10:47:10.520Z,16.20
2023-05-24T10:49:52.533Z,16.40
2023-05-24T10:52:20.919Z,16.40
2023-05-24T10:55:09.956Z,16.00
2023-05-24T10:57:39.929Z,15.50
2023-05-24T11:03:10.497Z,16.40
2023-05-24T11:05:48.117Z,16.20
2023-05-24T11:08:35.762Z,16.50
2023-05-24T11:11:25.554Z,16.50
2023-05-24T11:14:00.506Z,16.50
2023-05-24T11:16:40.493Z,16.70
2023-05-24T11:19:21.735Z,17.00
2023-05-24T11:21:52.000Z,17.60
2023-05-24T11:24:22.404Z,17.40
2023-05-24T11:26:51.069Z,17.60
2023-05-24T11:29:21.213Z,17.80
2023-05-24T11:31:54.568Z,18.20
2023-05-24T11:34:22.623Z,18.00
2023-05-24T11:36:55.697Z,17.40
2023-05-24T11:39:26.085Z,17.20
2023-05-24T11:41:54.872Z,17.50
2023-05-24T11:44:22.858Z,18.00
2023-05-24T11:46:50.387Z,17.70
2023-05-24T11:49:18.246Z,17.10
2023-05-24T11:51:45.817Z,16.60
2023-05-24T11:54:13.549Z,16.60
2023-05-24T11:56:41.349Z,16.50
2023-05-24T11:59:18.119Z,16.50
2023-05-24T12:01:45.781Z,16.90
2023-05-24T12:04:13.670Z,17.00
2023-05-24T12:06:44.987Z,16.70
2023-05-24T12:09:14.189Z,16.80
2023-05-24T12:11:44.122Z,16.90
2023-05-24T12:14:18.420Z,16.60
2023-05-24T12:16:47.382Z,16.60
2023-05-24T12:19:33.751Z,16.60
2023-05-24T12:22:06.240Z,16.40
2023-05-24T12:24:34.968Z,16.30
2023-05-24T12:27:08.068Z,16.40
2023-05-24T12:29:40.486Z,16.30
2023-05-24T12:32:15.307Z,16.40
2023-05-24T12:34:45.232Z,16.50
2023-05-24T12:37:15.079Z,16.50
2023-05-24T12:39:44.745Z,16.70
2023-05-24T12:42:13.866Z,16.90
2023-05-24T12:44:42.765Z,16.60
2023-05-24T12:47:11.259Z,16.10
2023-05-24T12:49:39.248Z,15.80
2023-05-24T12:52:07.288Z,15.70
2023-05-24T12:54:35.357Z,15.60
2023-05-24T12:57:03.606Z,15.70
2023-05-24T12:59:31.847Z,15.70
2023-05-24T13:01:59.791Z,15.70
2023-05-24T13:04:28.352Z,15.70
2023-05-24T13:06:56.047Z,15.70
2023-05-24T13:09:24.286Z,15.70
2023-05-24T13:11:52.915Z,16.10
2023-05-24T13:14:20.761Z,16.90
2023-05-24T13:16:49.117Z,17.30
2023-05-24T13:19:17.596Z,17.50
2023-05-24T13:21:45.723Z,17.80
2023-05-24T13:24:16.740Z,18.00
2023-05-24T13:26:45.303Z,18.10
2023-05-24T13:31:45.015Z,17.20
2023-05-24T13:34:13.023Z,16.80
2023-05-24T13:36:41.051Z,16.50
2023-05-24T13:41:41.684Z,16.60
2023-05-24T13:44:10.276Z,16.80
2023-05-24T13:46:38.843Z,16.80
2023-05-24T13:49:07.810Z,16.90
2023-05-24T13:51:36.169Z,17.00
2023-05-24T13:54:05.138Z,17.20
2023-05-24T13:56:34.430Z,17.60
2023-05-24T13:59:04.833Z,17.30
2023-05-24T14:01:34.347Z,16.60
2023-05-24T14:04:03.659Z,16.40
2023-05-24T14:06:32.741Z,16.30
2023-05-24T14:09:01.166Z,16.00
2023-05-24T14:11:31.901Z,16.10
2023-05-24T14:16:30.854Z,16.10
2023-05-24T14:18:58.698Z,16.10
2023-05-24T14:21:27.313Z,16.20
2023-05-24T14:23:55.404Z,16.40
2023-05-24T14:26:24.100Z,16.30
2023-05-24T14:28:55.327Z,15.90
2023-05-24T14:31:25.847Z,15.70
2023-05-24T14:33:53.796Z,15.70
2023-05-24T14:36:21.420Z,15.70
2023-05-24T14:38:48.971Z,15.80
2023-05-24T14:41:16.519Z,15.80
2023-05-24T14:43:44.093Z,16.00
2023-05-24T14:46:11.614Z,16.10
2023-05-24T14:48:41.794Z,16.20
2023-05-24T14:51:09.479Z,16.10
2023-05-24T14:53:37.231Z,16.10
2023-05-24T14:56:06.543Z,15.60
2023-05-24T14:58:34.147Z,15.50
2023-05-24T15:01:02.434Z,15.60
2023-05-24T15:03:30.237Z,15.60
2023-05-24T15:05:58.054Z,15.60
2023-05-24T15:08:25.563Z,15.50
2023-05-24T15:10:53.091Z,15.30
2023-05-24T15:13:20.813Z,15.30
2023-05-24T15:15:48.610Z,15.30
2023-05-24T15:18:16.431Z,15.30
2023-05-24T15:20:44.158Z,15.30
2023-05-24T15:23:12.060Z,15.10
2023-05-24T15:25:39.690Z,15.10
2023-05-24T15:28:07.523Z,15.20
2023-05-24T15:30:35.183Z,15.50
2023-05-24T15:33:02.791Z,15.80
2023-05-24T15:35:30.361Z,16.10
2023-05-24T15:37:57.955Z,17.30
2023-05-24T15:40:25.857Z,19.60
2023-05-24T15:42:53.517Z,20.80
2023-05-24T15:45:21.658Z,20.20
2023-05-24T15:47:49.306Z,20.10
2023-05-24T15:50:16.897Z,20.90
2023-05-24T15:52:44.507Z,21.20
2023-05-24T15:55:12.193Z,20.20
2023-05-24T15:57:39.810Z,18.90
2023-05-24T16:00:08.266Z,17.60
2023-05-24T16:02:35.933Z,17.00
2023-05-24T16:05:03.517Z,16.70
2023-05-24T16:07:32.083Z,16.40
2023-05-24T16:09:59.680Z,16.10
2023-05-24T16:12:27.269Z,16.30
2023-05-24T16:14:54.793Z,17.80
2023-05-24T16:17:22.313Z,19.20
2023-05-24T16:19:50.200Z,20.20
2023-05-24T16:22:17.865Z,20.50
2023-05-24T16:24:45.466Z,20.20
2023-05-24T16:27:13.099Z,19.80
2023-05-24T16:29:40.813Z,20.00
2023-05-24T16:32:08.858Z,20.10
2023-05-24T16:34:52.133Z,20.10
2023-05-24T16:37:23.552Z,20.20
2023-05-24T16:39:51.264Z,20.10
2023-05-24T16:42:18.794Z,18.30
2023-05-24T16:44:46.489Z,17.00
2023-05-24T16:47:14.051Z,16.20
2023-05-24T16:49:41.671Z,16.50
2023-05-24T16:52:09.239Z,17.60
2023-05-24T16:54:36.776Z,18.40
2023-05-24T16:57:04.583Z,18.60
2023-05-24T16:59:32.157Z,18.50
2023-05-24T17:01:59.830Z,18.70
2023-05-24T17:04:27.415Z,18.70
2023-05-24T17:06:54.945Z,18.60
2023-05-24T17:09:22.533Z,18.30
2023-05-24T17:11:51.025Z,17.80
2023-05-24T17:14:18.688Z,17.70
2023-05-24T17:16:46.319Z,17.90
2023-05-24T17:19:14.296Z,18.10
2023-05-24T17:21:42.228Z,18.30
2023-05-24T17:24:09.796Z,18.10
2023-05-24T17:26:39.245Z,17.80
2023-05-24T17:29:07.431Z,17.50
2023-05-24T17:31:35.168Z,17.00
2023-05-24T17:34:03.231Z,16.90
2023-05-24T17:36:33.826Z,16.90
2023-05-24T17:39:01.398Z,16.90
2023-05-24T17:41:28.931Z,16.70
2023-05-24T17:43:56.558Z,16.70
2023-05-24T17:46:24.205Z,16.80
2023-05-24T17:48:54.833Z,16.60
2023-05-24T17:51:24.688Z,16.30
2023-05-24T17:53:52.416Z,15.70
2023-05-24T17:56:22.502Z,15.20
2023-05-24T17:58:50.765Z,14.80
2023-05-24T18:01:18.399Z,14.40
2023-05-24T18:03:46.495Z,14.10
2023-05-24T18:06:14.083Z,13.90
2023-05-24T18:08:44.029Z,13.80
2023-05-24T18:11:13.784Z,13.60
2023-05-24T18:13:43.500Z,13.50
2023-05-24T18:16:12.888Z,13.30
2023-05-24T18:18:41.109Z,13.30
2023-05-24T18:21:09.961Z,13.10
2023-05-24T18:23:38.406Z,13.10
2023-05-24T18:26:11.495Z,13.00
2023-05-24T18:28:39.820Z,12.90
2023-05-24T18:31:10.632Z,12.90
2023-05-24T18:33:40.358Z,12.80
2023-05-24T18:36:08.768Z,12.60
2023-05-24T18:38:37.711Z,12.60
2023-05-24T18:41:09.446Z,12.50
2023-05-24T18:43:36.995Z,12.40
2023-05-24T18:46:04.596Z,12.30
2023-05-24T18:48:32.277Z,12.20
2023-05-24T18:50:59.888Z,12.00
2023-05-24T18:53:27.424Z,11.80
2023-05-24T18:55:54.960Z,11.80
2023-05-24T18:58:22.475Z,11.80
2023-05-24T19:00:50.776Z,11.60
2023-05-24T19:03:18.727Z,11.50
2023-05-24T19:05:46.655Z,11.40
2023-05-24T19:08:14.498Z,11.30
2023-05-24T19:10:42.010Z,11.20
2023-05-24T19:13:09.778Z,11.10
2023-05-24T19:15:37.541Z,11.20
2023-05-24T19:18:06.221Z,11.20
2023-05-24T19:20:33.974Z,11.10
2023-05-24T19:23:01.631Z,11.10
2023-05-24T19:25:30.662Z,11.00
2023-05-24T19:28:00.545Z,10.90
2023-05-24T19:30:28.714Z,10.90
2023-05-24T19:32:56.398Z,10.80
2023-05-24T19:35:24.152Z,10.80
2023-05-24T19:37:52.717Z,10.70
2023-05-24T19:40:20.992Z,10.60
2023-05-24T19:42:48.502Z,10.40
2023-05-24T19:45:16.591Z,10.30
2023-05-24T19:47:45.754Z,10.30
2023-05-24T19:50:13.416Z,10.30
2023-05-24T19:52:40.998Z,10.20
2023-05-24T19:55:09.713Z,10.20
2023-05-24T19:57:37.306Z,10.10
2023-05-24T20:00:06.555Z,10.10
2023-05-24T20:02:36.389Z,10.10
2023-05-24T20:05:04.750Z,10.10
2023-05-24T20:07:32.288Z,10.10
2023-05-24T20:09:59.855Z,10.10
2023-05-24T20:12:28.683Z,10.00
2023-05-24T20:14:56.189Z,10.00
2023-05-24T20:17:23.760Z,10.00
2023-05-24T20:19:51.879Z,10.00
2023-05-24T20:22:19.518Z,9.90
2023-05-24T20:24:47.136Z,9.90
2023-05-24T20:27:14.696Z,9.90
2023-05-24T20:29:42.997Z,9.90
2023-05-24T20:32:10.959Z,9.80
2023-05-24T20:34:38.479Z,9.80
2023-05-24T20:37:06.691Z,9.80
2023-05-24T20:39:34.332Z,9.80
2023-05-24T20:42:02.464Z,9.80
2023-05-24T20:44:30.014Z,9.60
2023-05-24T20:46:57.658Z,9.40
2023-05-24T20:49:25.190Z,9.50
2023-05-24T20:51:52.788Z,9.60
2023-05-24T20:54:20.581Z,9.60
2023-05-24T20:56:48.097Z,9.70
2023-05-24T20:59:15.708Z,9.60
2023-05-24T21:01:43.370Z,9.50
2023-05-24T21:04:11.437Z,9.30
2023-05-24T21:06:39.692Z,9.20
2023-05-24T21:09:07.213Z,9.10
2023-05-24T21:11:34.783Z,9.10
2023-05-24T21:14:02.314Z,9.00
2023-05-24T21:16:29.928Z,9.00
2023-05-24T21:19:01.084Z,9.00
2023-05-24T21:21:29.046Z,8.90
2023-05-24T21:23:56.910Z,8.80
2023-05-24T21:26:24.587Z,8.90
2023-05-24T21:28:52.177Z,9.00
2023-05-24T21:31:20.961Z,9.00
2023-05-24T21:33:48.728Z,9.00
2023-05-24T21:36:16.397Z,9.00
2023-05-24T21:38:44.048Z,9.00
2023-05-24T21:41:11.596Z,9.10
2023-05-24T21:43:41.321Z,9.30
2023-05-24T21:46:09.017Z,9.30
2023-05-24T21:48:36.580Z,9.20
2023-05-24T21:51:04.330Z,9.20
2023-05-24T21:53:31.951Z,9.20
2023-05-24T21:55:59.523Z,9.20
2023-05-24T21:58:27.020Z,9.10
2023-05-24T22:00:54.613Z,9.10
2023-05-24T22:03:22.250Z,9.00
2023-05-24T22:05:49.809Z,9.00
2023-05-24T22:08:17.420Z,9.10
2023-05-24T22:10:45.042Z,9.20
2023-05-24T22:13:12.572Z,9.20
2023-05-24T22:15:40.098Z,9.30
2023-05-24T22:18:08.978Z,9.30
2023-05-24T22:20:36.945Z,9.30
2023-05-24T22:23:04.646Z,9.30
2023-05-24T22:25:32.267Z,9.30
2023-05-24T22:27:59.806Z,9.20
2023-05-24T22:30:27.451Z,9.20
2023-05-24T22:32:56.064Z,9.10
2023-05-24T22:35:23.655Z,8.90
2023-05-24T22:37:51.215Z,9.00
2023-05-24T22:40:18.776Z,8.90
2023-05-24T22:42:46.398Z,8.80
2023-05-24T22:45:14.276Z,8.80
2023-05-24T22:47:41.913Z,8.70
2023-05-24T22:50:10.252Z,8.70
2023-05-24T22:52:42.612Z,8.70
2023-05-24T22:55:13.020Z,8.70
2023-05-24T22:57:40.735Z,8.60
2023-05-24T23:00:09.568Z,8.50
2023-05-24T23:02:37.152Z,8.50
2023-05-24T23:05:05.671Z,8.40
2023-05-24T23:07:33.263Z,8.40
2023-05-24T23:10:00.806Z,8.30
2023-05-24T23:12:28.407Z,8.40
2023-05-24T23:14:58.456Z,8.40
2023-05-24T23:17:26.595Z,8.50
2023-05-24T23:19:54.223Z,8.50
2023-05-24T23:22:24.072Z,8.40
2023-05-24T23:24:52.167Z,8.30
2023-05-24T23:27:20.331Z,8.30
2023-05-24T23:29:47.912Z,8.30
2023-05-24T23:32:15.577Z,8.30
2023-05-24T23:34:43.198Z,8.40
2023-05-24T23:37:10.737Z,8.40
2023-05-24T23:39:38.603Z,8.40
2023-05-24T23:42:06.936Z,8.40
2023-05-24T23:44:34.577Z,8.40
2023-05-24T23:47:03.041Z,8.40
2023-05-24T23:49:30.876Z,8.30
2023-05-24T23:51:58.597Z,8.30
2023-05-24T23:54:26.275Z,8.30
2023-05-24T23:56:53.906Z,8.40
2023-05-24T23:59:22.147Z,8.40
